Time;durP1;ratioP1;P1;durP2;ratioP2;P2;SDS_P1;SDS_P2;PMS_P1;PMS_P2;Temp;Humidity;BMP_temperature;BMP_pressure;BME280_temperature;BME280_humidity;BME280_pressure;Samples;Min_cycle;Max_cycle;Signal;HPM_P1;HPM_P2
2023/06/18 02:00:15;;;;;;;13.25;8.00;;;;;;;;;;5077968;27;20045;-80
2023/06/18 02:02:43;;;;;;;11.05;8.75;;;;;;;;;;4339210;33;20553;-85
2023/06/18 02:05:09;;;;;;;11.35;8.82;;;;;;;;;;4339159;33;20092;-85
2023/06/18 02:07:36;;;;;;;10.52;8.32;;;;;;;;;;4338459;33;20051;-83
2023/06/18 02:10:02;;;;;;;11.23;8.38;;;;;;;;;;4339326;33;20432;-82
2023/06/18 02:12:28;;;;;;;9.68;8.48;;;;;;;;;;4338755;33;20054;-77
2023/06/18 02:14:54;;;;;;;11.98;9.30;;;;;;;;;;4339543;33;20095;-87
2023/06/18 02:17:21;;;;;;;11.48;9.75;;;;;;;;;;4340143;33;20091;-85
2023/06/18 02:19:47;;;;;;;12.45;10.00;;;;;;;;;;4339983;33;20110;-84
2023/06/18 02:22:13;;;;;;;10.65;8.48;;;;;;;;;;4338282;33;20086;-83
2023/06/18 02:24:39;;;;;;;9.65;8.65;;;;;;;;;;4337925;33;20120;-84
2023/06/18 02:27:06;;;;;;;10.68;9.07;;;;;;;;;;4340028;33;20070;-86
2023/06/18 02:29:32;;;;;;;13.10;8.50;;;;;;;;;;4338590;33;20082;-84
2023/06/18 02:31:58;;;;;;;11.50;8.60;;;;;;;;;;4339495;33;20117;-84
2023/06/18 02:34:27;;;;;;;10.68;9.35;;;;;;;;;;4339882;33;20385;-84
2023/06/18 02:36:54;;;;;;;14.02;9.18;;;;;;;;;;4336308;33;20056;-84
2023/06/18 02:39:21;;;;;;;10.50;9.15;;;;;;;;;;4336647;33;20052;-83
2023/06/18 02:41:48;;;;;;;8.07;6.80;;;;;;;;;;4339162;33;20091;-83
2023/06/18 02:44:14;;;;;;;10.88;9.77;;;;;;;;;;4339576;33;20390;-83
2023/06/18 02:46:41;;;;;;;12.27;9.18;;;;;;;;;;4336632;33;20061;-80
2023/06/18 02:49:08;;;;;;;10.00;9.00;;;;;;;;;;4307374;33;20108;-83
2023/06/18 02:51:34;;;;;;;11.43;9.15;;;;;;;;;;4307832;33;20056;-83
2023/06/18 02:54:01;;;;;;;10.10;8.57;;;;;;;;;;4306500;33;20078;-84
2023/06/18 02:56:28;;;;;;;11.15;9.90;;;;;;;;;;4307567;33;20219;-84
2023/06/18 02:58:56;;;;;;;11.02;9.20;;;;;;;;;;4307696;33;20059;-77
2023/06/18 03:01:25;;;;;;;16.40;9.85;;;;;;;;;;4306292;33;20068;-84
2023/06/18 03:03:53;;;;;;;13.57;8.57;;;;;;;;;;4307242;33;20037;-86
2023/06/18 03:06:20;;;;;;;12.77;9.63;;;;;;;;;;4277348;33;20080;-85
2023/06/18 03:08:46;;;;;;;17.10;10.25;;;;;;;;;;4277544;33;20038;-84
2023/06/18 03:11:13;;;;;;;10.43;9.27;;;;;;;;;;4275233;33;20057;-83
2023/06/18 03:13:40;;;;;;;11.27;9.45;;;;;;;;;;4278984;33;20045;-82
2023/06/18 03:16:07;;;;;;;10.88;9.05;;;;;;;;;;4278776;33;20428;-84
2023/06/18 03:18:33;;;;;;;10.85;8.32;;;;;;;;;;4276395;33;20061;-81
2023/06/18 03:21:00;;;;;;;9.70;8.70;;;;;;;;;;4245402;33;20087;-80
2023/06/18 03:23:26;;;;;;;14.55;8.35;;;;;;;;;;4248089;33;20443;-84
2023/06/18 03:25:53;;;;;;;10.65;8.68;;;;;;;;;;4250297;33;20053;-83
2023/06/18 03:28:19;;;;;;;23.45;8.52;;;;;;;;;;4250679;33;20034;-83
2023/06/18 03:30:45;;;;;;;9.43;8.52;;;;;;;;;;4241791;33;20051;-84
2023/06/18 03:33:12;;;;;;;11.32;8.52;;;;;;;;;;4236773;33;20516;-85
2023/06/18 03:35:39;;;;;;;10.55;8.10;;;;;;;;;;4259039;33;20065;-84
2023/06/18 03:38:06;;;;;;;8.63;7.72;;;;;;;;;;4292104;33;20075;-84
2023/06/18 03:40:32;;;;;;;13.85;8.48;;;;;;;;;;4293174;33;20063;-83
2023/06/18 03:42:58;;;;;;;9.35;7.97;;;;;;;;;;4293243;33;20041;-84
2023/06/18 03:45:25;;;;;;;14.18;7.95;;;;;;;;;;4291069;33;20053;-85
2023/06/18 03:47:51;;;;;;;12.02;7.80;;;;;;;;;;4292896;33;20525;-84
2023/06/18 03:50:18;;;;;;;20.12;9.15;;;;;;;;;;4292313;33;20054;-85
2023/06/18 03:52:44;;;;;;;13.70;8.60;;;;;;;;;;4325168;33;20051;-85
2023/06/18 03:55:12;;;;;;;10.48;8.15;;;;;;;;;;4334589;33;20077;-79
2023/06/18 03:57:39;;;;;;;8.65;7.75;;;;;;;;;;4335442;33;20052;-86
2023/06/18 04:00:08;;;;;;;8.60;7.75;;;;;;;;;;4307305;33;20531;-86
2023/06/18 04:02:38;;;;;;;11.60;7.35;;;;;;;;;;4306993;33;20084;-86
2023/06/18 04:05:05;;;;;;;8.75;7.03;;;;;;;;;;4306769;33;20086;-81
2023/06/18 04:07:32;;;;;;;9.40;7.25;;;;;;;;;;4308251;33;20124;-79
2023/06/18 04:09:58;;;;;;;8.10;6.65;;;;;;;;;;4311143;33;20449;-85
2023/06/18 04:12:24;;;;;;;11.52;6.37;;;;;;;;;;4310575;33;20074;-85
2023/06/18 04:14:50;;;;;;;7.80;6.87;;;;;;;;;;4298129;33;20410;-84
2023/06/18 04:17:16;;;;;;;10.18;7.55;;;;;;;;;;4296268;33;20044;-83
2023/06/18 04:19:43;;;;;;;9.98;7.60;;;;;;;;;;4293552;33;20549;-83
2023/06/18 04:22:09;;;;;;;8.32;6.57;;;;;;;;;;4295447;33;20049;-84
2023/06/18 04:24:37;;;;;;;7.55;6.28;;;;;;;;;;4295623;33;20052;-86
2023/06/18 04:27:03;;;;;;;8.93;6.45;;;;;;;;;;4298988;33;20474;-84
2023/06/18 04:29:30;;;;;;;8.82;7.82;;;;;;;;;;4309779;33;20056;-81
2023/06/18 04:31:57;;;;;;;8.50;6.72;;;;;;;;;;4328790;33;20044;-78
2023/06/18 04:34:23;;;;;;;9.13;7.00;;;;;;;;;;4338930;33;20715;-82
2023/06/18 04:36:50;;;;;;;9.23;7.37;;;;;;;;;;4340657;33;20101;-83
2023/06/18 04:39:17;;;;;;;7.55;6.72;;;;;;;;;;4339823;33;20125;-82
2023/06/18 04:41:44;;;;;;;8.77;7.85;;;;;;;;;;4340351;33;20086;-81
2023/06/18 04:44:13;;;;;;;10.60;7.47;;;;;;;;;;4339926;33;20044;-83
2023/06/18 04:46:40;;;;;;;9.73;7.35;;;;;;;;;;4340990;33;20032;-85
2023/06/18 04:49:07;;;;;;;10.63;7.95;;;;;;;;;;4330857;33;20074;-84
2023/06/18 04:51:34;;;;;;;14.73;7.65;;;;;;;;;;4314440;33;20083;-85
2023/06/18 04:54:01;;;;;;;25.80;7.75;;;;;;;;;;4301209;33;20137;-84
2023/06/18 04:56:28;;;;;;;13.40;7.65;;;;;;;;;;4299730;33;20074;-83
2023/06/18 04:58:54;;;;;;;8.95;8.05;;;;;;;;;;4299934;33;20087;-85
2023/06/18 05:01:21;;;;;;;14.40;7.82;;;;;;;;;;4305871;33;20041;-86
2023/06/18 05:03:47;;;;;;;13.93;8.93;;;;;;;;;;4281590;33;20377;-88
2023/06/18 05:06:14;;;;;;;9.70;7.95;;;;;;;;;;4262239;33;20115;-82
2023/06/18 05:08:40;;;;;;;17.05;8.50;;;;;;;;;;4277979;33;20349;-85
2023/06/18 05:11:07;;;;;;;16.67;8.70;;;;;;;;;;4264272;33;20111;-84
2023/06/18 05:13:33;;;;;;;11.12;8.32;;;;;;;;;;4265698;33;20181;-87
2023/06/18 05:15:59;;;;;;;10.38;7.55;;;;;;;;;;4265475;33;20088;-86
2023/06/18 05:18:27;;;;;;;15.98;8.40;;;;;;;;;;4263258;33;20098;-81
2023/06/18 05:20:54;;;;;;;9.52;8.23;;;;;;;;;;4264824;33;20069;-80
2023/06/18 05:23:20;;;;;;;10.00;9.00;;;;;;;;;;4265255;33;20058;-87
2023/06/18 05:25:47;;;;;;;9.90;8.38;;;;;;;;;;4252942;33;20121;-86
2023/06/18 05:28:13;;;;;;;14.85;8.27;;;;;;;;;;4264544;33;20050;-88
2023/06/18 05:30:42;;;;;;;13.00;8.55;;;;;;;;;;4263343;33;20064;-87
2023/06/18 05:33:08;;;;;;;15.15;7.65;;;;;;;;;;4264155;33;20053;-87
2023/06/18 05:35:34;;;;;;;10.57;7.53;;;;;;;;;;4283480;33;20132;-87
2023/06/18 05:38:02;;;;;;;10.45;7.70;;;;;;;;;;4314543;33;20052;-87
2023/06/18 05:40:29;;;;;;;9.02;7.07;;;;;;;;;;4314716;33;20052;-85
2023/06/18 05:42:56;;;;;;;7.93;7.12;;;;;;;;;;4320119;33;20053;-84
2023/06/18 05:45:22;;;;;;;11.32;6.87;;;;;;;;;;4322918;33;20044;-84
2023/06/18 05:47:49;;;;;;;10.55;7.68;;;;;;;;;;4322945;33;20133;-84
2023/06/18 05:50:17;;;;;;;8.43;7.05;;;;;;;;;;4321382;33;20091;-82
2023/06/18 05:52:44;;;;;;;11.35;7.22;;;;;;;;;;4321103;33;20074;-86
2023/06/18 05:55:10;;;;;;;10.13;6.85;;;;;;;;;;4322308;33;20064;-87
2023/06/18 05:57:37;;;;;;;9.68;7.00;;;;;;;;;;4324549;33;20070;-82
2023/06/18 06:00:04;;;;;;;11.02;7.60;;;;;;;;;;4333237;33;20048;-82
2023/06/18 06:02:40;;;;;;;11.90;7.62;;;;;;;;;;4336899;33;20131;-82
2023/06/18 06:05:08;;;;;;;9.98;7.78;;;;;;;;;;4337013;33;20060;-82
2023/06/18 06:07:35;;;;;;;10.02;7.12;;;;;;;;;;4339450;33;20052;-84
2023/06/18 06:10:01;;;;;;;12.65;8.50;;;;;;;;;;4304957;33;20026;-81
2023/06/18 06:12:28;;;;;;;10.02;8.05;;;;;;;;;;4306384;33;20188;-79
2023/06/18 06:14:54;;;;;;;9.65;8.60;;;;;;;;;;4307534;33;20582;-84
2023/06/18 06:17:20;;;;;;;11.05;8.35;;;;;;;;;;4307578;33;20138;-84
2023/06/18 06:19:47;;;;;;;9.25;8.27;;;;;;;;;;4292415;33;20059;-87
2023/06/18 06:22:13;;;;;;;8.02;7.15;;;;;;;;;;4292086;33;20064;-90
2023/06/18 06:24:40;;;;;;;10.55;8.45;;;;;;;;;;4291654;33;20435;-85
2023/06/18 06:27:06;;;;;;;10.55;7.53;;;;;;;;;;4298535;33;20096;-86
2023/06/18 06:29:32;;;;;;;11.00;6.82;;;;;;;;;;4303199;33;20060;-84
2023/06/18 06:31:59;;;;;;;7.55;6.55;;;;;;;;;;4292160;33;20065;-87
2023/06/18 06:34:25;;;;;;;8.05;6.80;;;;;;;;;;4299545;33;20075;-80
2023/06/18 06:36:52;;;;;;;7.80;6.57;;;;;;;;;;4291923;33;20063;-85
2023/06/18 06:39:19;;;;;;;16.90;7.32;;;;;;;;;;4279022;33;20071;-84
2023/06/18 06:41:45;;;;;;;15.20;6.25;;;;;;;;;;4295041;33;20544;-86
2023/06/18 06:44:13;;;;;;;8.15;6.97;;;;;;;;;;4295600;33;20102;-89
2023/06/18 06:46:43;;;;;;;8.50;6.32;;;;;;;;;;4304712;33;20080;-83
2023/06/18 06:49:10;;;;;;;6.75;5.65;;;;;;;;;;4309320;33;20041;-80
2023/06/18 06:51:37;;;;;;;7.68;6.57;;;;;;;;;;4307143;33;20153;-83
2023/06/18 06:54:04;;;;;;;10.02;6.43;;;;;;;;;;4312377;33;20117;-83
2023/06/18 06:56:31;;;;;;;8.73;7.55;;;;;;;;;;4312953;33;20105;-76
2023/06/18 06:58:58;;;;;;;8.18;7.32;;;;;;;;;;4303046;33;20122;-80
2023/06/18 07:01:24;;;;;;;15.48;6.60;;;;;;;;;;4294711;33;20053;-77
2023/06/18 07:03:50;;;;;;;6.40;5.72;;;;;;;;;;4297626;33;20090;-77
2023/06/18 07:06:17;;;;;;;9.80;6.60;;;;;;;;;;4291544;33;20045;-77
2023/06/18 07:08:43;;;;;;;8.05;6.68;;;;;;;;;;4291793;33;20423;-81
2023/06/18 07:11:10;;;;;;;13.45;6.28;;;;;;;;;;4312747;33;20056;-79
2023/06/18 07:13:36;;;;;;;10.32;4.10;;;;;;;;;;4319168;33;20048;-73
2023/06/18 07:16:02;;;;;;;3.75;3.37;;;;;;;;;;4319755;33;20036;-79
2023/06/18 07:18:28;;;;;;;10.73;4.25;;;;;;;;;;4318403;33;20122;-81
2023/06/18 07:20:55;;;;;;;4.80;4.20;;;;;;;;;;4320941;33;20057;-89
2023/06/18 07:23:21;;;;;;;3.47;3.00;;;;;;;;;;4322002;33;20225;-80
2023/06/18 07:25:47;;;;;;;5.07;3.90;;;;;;;;;;4321853;33;20086;-85
2023/06/18 07:28:13;;;;;;;5.90;3.53;;;;;;;;;;4312504;33;20108;-76
2023/06/18 07:30:39;;;;;;;3.58;3.28;;;;;;;;;;4317199;33;20044;-87
2023/06/18 07:33:06;;;;;;;5.43;3.92;;;;;;;;;;4321614;33;20829;-83
2023/06/18 07:35:32;;;;;;;5.28;3.50;;;;;;;;;;4320444;33;20040;-90
2023/06/18 07:37:58;;;;;;;3.67;3.37;;;;;;;;;;4321697;33;20142;-90
2023/06/18 07:40:25;;;;;;;3.87;3.58;;;;;;;;;;4320408;33;20060;-77
2023/06/18 07:42:52;;;;;;;5.20;4.37;;;;;;;;;;4319637;33;20041;-89
2023/06/18 07:45:18;;;;;;;4.25;3.95;;;;;;;;;;4293329;33;20096;-91
2023/06/18 07:47:44;;;;;;;5.10;4.15;;;;;;;;;;4264623;33;20041;-87
2023/06/18 07:50:11;;;;;;;3.90;3.55;;;;;;;;;;4265208;33;20056;-86
2023/06/18 07:52:37;;;;;;;3.70;3.40;;;;;;;;;;4274114;33;20294;-78
2023/06/18 07:55:03;;;;;;;3.90;3.60;;;;;;;;;;4276407;33;20183;-89
2023/06/18 07:57:29;;;;;;;5.43;3.92;;;;;;;;;;4265240;33;20046;-91
2023/06/18 07:59:56;;;;;;;4.12;3.83;;;;;;;;;;4263579;33;20045;-84
2023/06/18 08:02:22;;;;;;;4.35;3.95;;;;;;;;;;4262349;33;20124;-85
2023/06/18 08:04:49;;;;;;;5.43;4.87;;;;;;;;;;4262550;33;20067;-80
2023/06/18 08:07:16;;;;;;;7.90;5.68;;;;;;;;;;4261909;33;20528;-89
2023/06/18 08:09:42;;;;;;;6.70;5.90;;;;;;;;;;4265108;33;20054;-84
2023/06/18 08:12:09;;;;;;;4.85;4.35;;;;;;;;;;4265311;33;20543;-85
2023/06/18 08:14:35;;;;;;;4.30;3.90;;;;;;;;;;4265268;33;20046;-91
2023/06/18 08:17:01;;;;;;;4.35;3.87;;;;;;;;;;4263518;33;20045;-77
2023/06/18 08:19:28;;;;;;;5.12;4.65;;;;;;;;;;4263538;33;20110;-85
2023/06/18 08:21:54;;;;;;;5.07;4.53;;;;;;;;;;4264135;33;20034;-82
2023/06/18 08:24:20;;;;;;;6.70;4.00;;;;;;;;;;4292351;33;20100;-85
2023/06/18 08:26:47;;;;;;;4.53;4.18;;;;;;;;;;4303580;33;20052;-84
2023/06/18 08:29:13;;;;;;;4.30;3.90;;;;;;;;;;4295562;33;20061;-76
2023/06/18 08:31:41;;;;;;;6.53;3.90;;;;;;;;;;4303155;33;20457;-83
2023/06/18 08:34:08;;;;;;;5.68;4.40;;;;;;;;;;4304089;33;20124;-82
2023/06/18 08:36:35;;;;;;;5.43;4.25;;;;;;;;;;4319887;33;20041;-83
2023/06/18 08:39:05;;;;;;;4.82;4.43;;;;;;;;;;4306059;33;20064;-77
2023/06/18 08:41:32;;;;;;;4.22;3.92;;;;;;;;;;4304175;33;20074;-85
2023/06/18 08:44:00;;;;;;;4.30;3.90;;;;;;;;;;4307263;33;20100;-83
2023/06/18 08:46:27;;;;;;;5.97;4.53;;;;;;;;;;4308807;33;20037;-82
2023/06/18 08:48:58;;;;;;;4.50;4.07;;;;;;;;;;4310549;33;20485;-88
2023/06/18 08:51:25;;;;;;;6.07;3.97;;;;;;;;;;4305854;33;20052;-76
2023/06/18 08:53:59;;;;;;;5.95;4.03;;;;;;;;;;4309943;33;20053;-85
2023/06/18 08:56:27;;;;;;;4.60;4.18;;;;;;;;;;4306549;33;20045;-80
2023/06/18 08:58:57;;;;;;;6.30;3.83;;;;;;;;;;4308717;33;20379;-79
2023/06/18 09:01:24;;;;;;;7.87;4.60;;;;;;;;;;4291096;33;20044;-90
2023/06/18 09:03:53;;;;;;;4.90;4.45;;;;;;;;;;4306279;33;20568;-86
2023/06/18 09:06:18;;;;;;;5.72;4.65;;;;;;;;;;4300087;33;20037;-83
2023/06/18 09:08:46;;;;;;;5.10;4.65;;;;;;;;;;4282786;33;20685;-85
2023/06/18 09:11:12;;;;;;;12.77;4.97;;;;;;;;;;4294133;33;20074;-86
2023/06/18 09:13:40;;;;;;;5.22;4.50;;;;;;;;;;4301120;33;20057;-88
2023/06/18 09:16:06;;;;;;;5.28;4.28;;;;;;;;;;4302701;33;20060;-85
2023/06/18 09:18:33;;;;;;;4.00;3.60;;;;;;;;;;4301517;33;20037;-90
2023/06/18 09:20:59;;;;;;;3.80;3.50;;;;;;;;;;4300279;33;20049;-84
2023/06/18 09:23:25;;;;;;;6.43;4.82;;;;;;;;;;4298640;33;20068;-88
2023/06/18 09:25:53;;;;;;;7.57;4.35;;;;;;;;;;4302547;33;20156;-85
2023/06/18 09:28:20;;;;;;;5.82;4.68;;;;;;;;;;4293525;33;20075;-84
2023/06/18 09:30:52;;;;;;;5.25;4.53;;;;;;;;;;4300736;33;20045;-84
2023/06/18 09:33:28;;;;;;;4.62;4.22;;;;;;;;;;4309667;33;20071;-77
2023/06/18 09:36:08;;;;;;;4.68;4.28;;;;;;;;;;4293823;33;20048;-88
2023/06/18 09:38:35;;;;;;;4.70;4.35;;;;;;;;;;4320411;33;20044;-87
2023/06/18 09:41:02;;;;;;;4.50;4.10;;;;;;;;;;4322211;33;20045;-80
2023/06/18 09:43:32;;;;;;;4.90;4.07;;;;;;;;;;4323473;33;20669;-84
2023/06/18 09:45:58;;;;;;;5.05;4.10;;;;;;;;;;4335085;33;20088;-87
2023/06/18 09:48:26;;;;;;;4.70;4.20;;;;;;;;;;4332068;33;20073;-87
2023/06/18 09:50:54;;;;;;;4.50;4.20;;;;;;;;;;4329686;33;20058;-84
2023/06/18 09:53:20;;;;;;;6.53;4.37;;;;;;;;;;4330360;33;20127;-86
2023/06/18 09:55:48;;;;;;;27.50;8.32;;;;;;;;;;4331565;33;20249;-85
2023/06/18 09:58:14;;;;;;;4.90;4.50;;;;;;;;;;4329103;33;20102;-82
2023/06/18 10:00:41;;;;;;;8.20;4.37;;;;;;;;;;4330094;33;20074;-86
2023/06/18 10:03:07;;;;;;;4.95;4.47;;;;;;;;;;4324675;33;20058;-83
2023/06/18 10:05:34;;;;;;;13.10;4.57;;;;;;;;;;4325884;33;20066;-86
2023/06/18 10:08:03;;;;;;;18.98;8.57;;;;;;;;;;4326251;33;20053;-85
2023/06/18 10:10:30;;;;;;;10.25;4.20;;;;;;;;;;4324754;33;20048;-85
2023/06/18 10:12:59;;;;;;;5.00;4.50;;;;;;;;;;4325235;33;20078;-89
2023/06/18 10:15:25;;;;;;;5.10;4.45;;;;;;;;;;4323738;33;20074;-83
2023/06/18 10:17:54;;;;;;;5.30;4.50;;;;;;;;;;4326566;33;20355;-84
2023/06/18 10:20:22;;;;;;;5.85;4.30;;;;;;;;;;4325049;33;20062;-85
2023/06/18 10:22:53;;;;;;;5.20;4.70;;;;;;;;;;4321928;33;20057;-93
2023/06/18 10:25:20;;;;;;;4.25;3.90;;;;;;;;;;4319511;33;20036;-93
2023/06/18 10:27:48;;;;;;;4.07;3.78;;;;;;;;;;4323324;33;20211;-89
2023/06/18 10:30:15;;;;;;;5.07;4.60;;;;;;;;;;4322433;33;20109;-88
2023/06/18 10:32:42;;;;;;;5.45;4.95;;;;;;;;;;4322591;33;20438;-88
2023/06/18 10:35:09;;;;;;;9.27;6.35;;;;;;;;;;4322085;33;20082;-77
2023/06/18 10:37:36;;;;;;;6.78;5.12;;;;;;;;;;4321949;33;20048;-88
2023/06/18 10:40:03;;;;;;;5.28;4.35;;;;;;;;;;4322598;33;20066;-86
2023/06/18 10:42:30;;;;;;;10.77;7.30;;;;;;;;;;4321237;33;20096;-86
2023/06/18 10:44:57;;;;;;;6.85;5.95;;;;;;;;;;4323180;33;20056;-87
2023/06/18 10:47:26;;;;;;;5.53;4.97;;;;;;;;;;4319259;33;20051;-85
2023/06/18 10:50:00;;;;;;;5.00;4.55;;;;;;;;;;4319204;33;20200;-85
2023/06/18 10:52:30;;;;;;;4.78;4.35;;;;;;;;;;4323046;33;20057;-84
2023/06/18 10:55:19;;;;;;;6.80;4.55;;;;;;;;;;4323519;33;20032;-89
2023/06/18 10:57:47;;;;;;;8.10;4.00;;;;;;;;;;4276379;33;20059;-83
2023/06/18 11:03:19;;;;;;;5.57;4.75;;;;;;;;;;4239213;33;20080;-82
2023/06/18 11:05:47;;;;;;;6.40;4.93;;;;;;;;;;4239323;33;20050;-85
2023/06/18 11:08:14;;;;;;;4.62;4.15;;;;;;;;;;4249235;33;20038;-83
2023/06/18 11:10:42;;;;;;;4.55;4.18;;;;;;;;;;4249437;33;20064;-86
2023/06/18 11:13:09;;;;;;;9.02;5.18;;;;;;;;;;4250065;33;20085;-83
2023/06/18 11:15:36;;;;;;;5.55;4.90;;;;;;;;;;4247729;33;20508;-84
2023/06/18 11:18:03;;;;;;;5.85;4.57;;;;;;;;;;4250164;33;20323;-86
2023/06/18 11:20:30;;;;;;;9.27;6.22;;;;;;;;;;4250031;33;20057;-83
2023/06/18 11:22:57;;;;;;;16.77;8.70;;;;;;;;;;4250290;33;20064;-80
2023/06/18 11:25:24;;;;;;;72.05;11.45;;;;;;;;;;4249182;33;20554;-77
2023/06/18 11:27:54;;;;;;;31.02;11.45;;;;;;;;;;4236206;33;20054;-84
2023/06/18 11:30:20;;;;;;;32.45;12.85;;;;;;;;;;4247439;33;20053;-83
2023/06/18 11:32:47;;;;;;;18.95;10.35;;;;;;;;;;4247912;33;20054;-81
2023/06/18 11:35:13;;;;;;;57.62;15.68;;;;;;;;;;4286127;33;20102;-79
2023/06/18 11:37:43;;;;;;;29.95;17.02;;;;;;;;;;4292057;33;20099;-78
2023/06/18 11:40:10;;;;;;;49.08;15.73;;;;;;;;;;4305493;33;20059;-82
2023/06/18 11:42:37;;;;;;;40.35;17.05;;;;;;;;;;4305283;33;20603;-82
2023/06/18 11:45:04;;;;;;;24.67;16.70;;;;;;;;;;4307056;33;20049;-79
2023/06/18 11:47:32;;;;;;;22.25;14.02;;;;;;;;;;4307501;33;20041;-79
2023/06/18 11:49:59;;;;;;;16.42;13.40;;;;;;;;;;4304014;33;20053;-79
2023/06/18 11:52:26;;;;;;;12.50;9.07;;;;;;;;;;4307243;33;20326;-80
2023/06/18 11:54:53;;;;;;;14.68;9.38;;;;;;;;;;4307648;33;20041;-80
2023/06/18 11:57:21;;;;;;;11.68;9.50;;;;;;;;;;4306031;33;20071;-79
2023/06/18 11:59:51;;;;;;;15.60;9.30;;;;;;;;;;4320311;33;20052;-78
2023/06/18 12:02:18;;;;;;;17.75;10.30;;;;;;;;;;4323838;33;20078;-80
2023/06/18 12:04:45;;;;;;;12.37;9.82;;;;;;;;;;4324094;33;20446;-79
2023/06/18 12:07:18;;;;;;;14.52;10.32;;;;;;;;;;4319659;33;20041;-79
2023/06/18 12:09:45;;;;;;;10.30;8.30;;;;;;;;;;4294711;33;20053;-78
2023/06/18 12:12:22;;;;;;;10.23;7.40;;;;;;;;;;4314362;33;20052;-78
2023/06/18 12:14:57;;;;;;;10.32;7.90;;;;;;;;;;4317000;33;20032;-79
2023/06/18 12:17:30;;;;;;;12.65;8.02;;;;;;;;;;4316719;33;20049;-76
2023/06/18 12:19:59;;;;;;;7.57;6.47;;;;;;;;;;4288045;33;20217;-79
2023/06/18 12:22:26;;;;;;;12.98;7.47;;;;;;;;;;4275955;33;20483;-79
2023/06/18 12:24:53;;;;;;;7.22;6.25;;;;;;;;;;4273635;33;20372;-79
2023/06/18 12:27:20;;;;;;;5.18;4.53;;;;;;;;;;4276967;33;20444;-79
2023/06/18 12:29:46;;;;;;;16.60;8.38;;;;;;;;;;4277341;33;20041;-79
2023/06/18 12:32:12;;;;;;;9.23;4.80;;;;;;;;;;4280577;33;20041;-79
2023/06/18 12:34:39;;;;;;;3.97;3.55;;;;;;;;;;4268810;33;20067;-78
2023/06/18 12:37:06;;;;;;;5.07;3.87;;;;;;;;;;4279424;33;20063;-78
2023/06/18 12:39:32;;;;;;;4.35;3.95;;;;;;;;;;4280060;33;20034;-75
2023/06/18 12:41:58;;;;;;;4.87;3.22;;;;;;;;;;4278543;33;20576;-76
2023/06/18 12:44:27;;;;;;;3.70;3.40;;;;;;;;;;4252186;33;20299;-78
2023/06/18 12:46:56;;;;;;;3.60;3.30;;;;;;;;;;4271017;33;20095;-79
2023/06/18 12:49:23;;;;;;;4.68;3.40;;;;;;;;;;4273697;33;20434;-79
2023/06/18 12:51:49;;;;;;;3.42;3.12;;;;;;;;;;4289160;33;20033;-78
2023/06/18 12:54:21;;;;;;;4.07;3.22;;;;;;;;;;4315936;33;20040;-79
2023/06/18 12:56:53;;;;;;;3.85;3.55;;;;;;;;;;4326666;33;20096;-80
2023/06/18 12:59:20;;;;;;;6.50;3.37;;;;;;;;;;4320220;33;20076;-80
2023/06/18 13:01:46;;;;;;;3.92;2.90;;;;;;;;;;4325426;33;20040;-78
2023/06/18 13:04:14;;;;;;;2.92;2.62;;;;;;;;;;4320250;33;20110;-78
2023/06/18 13:06:40;;;;;;;4.40;2.80;;;;;;;;;;4329473;33;20059;-79
2023/06/18 13:09:06;;;;;;;10.38;7.18;;;;;;;;;;4336730;33;20052;-81
2023/06/18 13:11:33;;;;;;;11.93;6.57;;;;;;;;;;4328956;33;20433;-80
2023/06/18 13:14:06;;;;;;;3.33;3.12;;;;;;;;;;4321054;33;20114;-79
2023/06/18 13:16:33;;;;;;;3.83;3.00;;;;;;;;;;4327280;33;20067;-81
2023/06/18 13:18:59;;;;;;;3.40;3.10;;;;;;;;;;4340706;33;20052;-81
2023/06/18 13:21:25;;;;;;;3.42;3.12;;;;;;;;;;4327465;33;20086;-79
2023/06/18 13:23:52;;;;;;;3.72;3.30;;;;;;;;;;4325130;33;20040;-85
2023/06/18 13:26:29;;;;;;;3.05;2.83;;;;;;;;;;4321554;33;20540;-78
2023/06/18 13:28:55;;;;;;;3.17;2.50;;;;;;;;;;4326208;33;20079;-76
2023/06/18 13:31:21;;;;;;;6.30;3.35;;;;;;;;;;4324739;33;20045;-76
2023/06/18 13:33:48;;;;;;;7.80;4.00;;;;;;;;;;4327594;33;20068;-78
2023/06/18 13:36:14;;;;;;;3.72;3.47;;;;;;;;;;4331456;33;20117;-78
2023/06/18 13:38:41;;;;;;;12.88;6.43;;;;;;;;;;4332347;33;20476;-76
2023/06/18 13:41:07;;;;;;;5.97;3.87;;;;;;;;;;4320407;33;20168;-78
2023/06/18 13:43:34;;;;;;;3.95;3.60;;;;;;;;;;4319982;33;20052;-78
2023/06/18 13:46:01;;;;;;;3.67;3.37;;;;;;;;;;4317362;33;20048;-77
2023/06/18 13:48:27;;;;;;;4.07;3.78;;;;;;;;;;4316732;33;20071;-78
2023/06/18 13:50:53;;;;;;;6.53;3.28;;;;;;;;;;4276693;33;20132;-78
2023/06/18 13:53:20;;;;;;;3.50;3.20;;;;;;;;;;4279029;33;20075;-78
2023/06/18 13:55:46;;;;;;;2.92;2.72;;;;;;;;;;4280425;33;20088;-78
2023/06/18 13:58:13;;;;;;;3.78;3.50;;;;;;;;;;4278165;33;20200;-80
2023/06/18 14:00:41;;;;;;;4.70;3.53;;;;;;;;;;4236029;33;20089;-78
2023/06/18 14:03:09;;;;;;;3.87;3.28;;;;;;;;;;4233474;33;20068;-78
2023/06/18 14:05:37;;;;;;;3.22;3.03;;;;;;;;;;4221709;33;20068;-78
2023/06/18 14:08:04;;;;;;;5.65;3.12;;;;;;;;;;4222685;33;20051;-78
2023/06/18 14:10:30;;;;;;;5.95;3.45;;;;;;;;;;4222972;33;20054;-80
2023/06/18 14:12:57;;;;;;;3.78;3.47;;;;;;;;;;4223371;33;20080;-80
2023/06/18 14:15:23;;;;;;;3.55;3.12;;;;;;;;;;4225035;33;20492;-78
2023/06/18 14:17:50;;;;;;;3.65;3.42;;;;;;;;;;4231266;33;20059;-77
2023/06/18 14:20:17;;;;;;;3.78;3.50;;;;;;;;;;4235304;33;20068;-78
2023/06/18 14:22:45;;;;;;;5.07;4.15;;;;;;;;;;4238614;33;20086;-77
2023/06/18 14:25:11;;;;;;;2.78;2.58;;;;;;;;;;4235298;33;20046;-78
2023/06/18 14:27:38;;;;;;;3.37;2.67;;;;;;;;;;4235002;33;20066;-77
2023/06/18 14:30:04;;;;;;;3.10;2.90;;;;;;;;;;4249092;33;20043;-78
2023/06/18 14:32:31;;;;;;;6.93;3.70;;;;;;;;;;4261260;33;20072;-79
2023/06/18 14:35:00;;;;;;;2.95;2.75;;;;;;;;;;4267509;33;20042;-78
2023/06/18 14:37:26;;;;;;;3.30;3.05;;;;;;;;;;4259237;33;20080;-77
2023/06/18 14:39:53;;;;;;;3.90;3.65;;;;;;;;;;4289200;33;20585;-79
2023/06/18 14:42:20;;;;;;;3.83;3.53;;;;;;;;;;4290733;33;20454;-79
2023/06/18 14:44:47;;;;;;;4.50;4.10;;;;;;;;;;4275989;33;20157;-78
2023/06/18 14:47:13;;;;;;;4.97;4.45;;;;;;;;;;4277761;33;20059;-78
2023/06/18 14:49:39;;;;;;;6.80;4.15;;;;;;;;;;4273381;33;20042;-77
2023/06/18 14:52:06;;;;;;;6.75;4.25;;;;;;;;;;4265347;33;20117;-79
2023/06/18 14:54:33;;;;;;;10.52;4.00;;;;;;;;;;4266537;33;20057;-77
2023/06/18 14:57:00;;;;;;;25.92;13.65;;;;;;;;;;4273487;33;20050;-77
2023/06/18 14:59:26;;;;;;;4.80;4.40;;;;;;;;;;4276282;33;20079;-77
2023/06/18 15:01:53;;;;;;;7.45;4.05;;;;;;;;;;4277183;33;20310;-77
2023/06/18 15:04:19;;;;;;;10.30;4.75;;;;;;;;;;4266640;33;20053;-84
2023/06/18 15:06:45;;;;;;;7.00;4.53;;;;;;;;;;4274385;33;20046;-76
2023/06/18 15:09:12;;;;;;;5.18;4.68;;;;;;;;;;4272490;33;20033;-76
2023/06/18 15:11:38;;;;;;;5.62;4.53;;;;;;;;;;4269951;33;20133;-78
2023/06/18 15:14:04;;;;;;;9.55;5.37;;;;;;;;;;4275102;33;20104;-76
2023/06/18 15:16:34;;;;;;;6.18;5.32;;;;;;;;;;4277837;33;20443;-77
2023/06/18 15:19:00;;;;;;;6.00;5.03;;;;;;;;;;4279195;33;20083;-78
2023/06/18 15:21:26;;;;;;;7.87;5.82;;;;;;;;;;4276218;33;20037;-77
2023/06/18 15:23:55;;;;;;;6.43;5.53;;;;;;;;;;4278104;33;21018;-78
2023/06/18 15:26:21;;;;;;;6.15;5.55;;;;;;;;;;4276848;33;20050;-75
2023/06/18 15:28:47;;;;;;;7.35;5.18;;;;;;;;;;4262401;33;20444;-75
2023/06/18 15:31:14;;;;;;;5.95;5.35;;;;;;;;;;4265216;33;20086;-75
2023/06/18 15:33:41;;;;;;;5.82;5.32;;;;;;;;;;4270096;33;20432;-79
2023/06/18 15:36:08;;;;;;;5.85;5.25;;;;;;;;;;4256027;33;20079;-77
2023/06/18 15:38:34;;;;;;;6.40;4.60;;;;;;;;;;4262892;33;20071;-77
2023/06/18 15:41:02;;;;;;;5.37;4.85;;;;;;;;;;4255841;33;20090;-76
2023/06/18 15:43:31;;;;;;;4.45;4.05;;;;;;;;;;4254083;33;20101;-77
2023/06/18 15:45:58;;;;;;;4.15;3.85;;;;;;;;;;4247613;33;20181;-76
2023/06/18 15:48:25;;;;;;;3.90;3.60;;;;;;;;;;4265761;33;20076;-77
2023/06/18 15:50:51;;;;;;;8.30;4.05;;;;;;;;;;4266526;33;20053;-77
2023/06/18 15:53:18;;;;;;;3.90;3.60;;;;;;;;;;4254701;33;20037;-76
2023/06/18 15:55:46;;;;;;;4.35;4.00;;;;;;;;;;4257507;33;20089;-76
2023/06/18 15:58:15;;;;;;;7.10;3.85;;;;;;;;;;4230066;33;20082;-81
2023/06/18 16:00:42;;;;;;;5.18;4.53;;;;;;;;;;4221558;33;20084;-79
2023/06/18 16:03:08;;;;;;;4.62;4.22;;;;;;;;;;4224943;33;20047;-79
2023/06/18 16:05:35;;;;;;;4.57;4.18;;;;;;;;;;4226391;33;20050;-80
2023/06/18 16:08:01;;;;;;;6.03;3.97;;;;;;;;;;4237960;33;20101;-77
2023/06/18 16:10:28;;;;;;;5.03;4.07;;;;;;;;;;4237009;33;20060;-79
2023/06/18 16:12:54;;;;;;;4.45;4.05;;;;;;;;;;4229558;33;20043;-79
2023/06/18 16:15:20;;;;;;;4.37;3.95;;;;;;;;;;4242408;33;20050;-79
2023/06/18 16:17:47;;;;;;;5.80;3.67;;;;;;;;;;4244338;33;20046;-80
2023/06/18 16:20:13;;;;;;;5.22;4.00;;;;;;;;;;4244481;33;20097;-79
2023/06/18 16:22:39;;;;;;;6.30;4.22;;;;;;;;;;4238333;33;20051;-80
2023/06/18 16:25:06;;;;;;;6.65;4.50;;;;;;;;;;4261914;33;20092;-79
2023/06/18 16:27:32;;;;;;;4.53;3.62;;;;;;;;;;4278109;33;20051;-79
2023/06/18 16:29:58;;;;;;;4.18;3.80;;;;;;;;;;4277905;33;20100;-78
2023/06/18 16:32:25;;;;;;;5.50;3.60;;;;;;;;;;4272238;33;20033;-79
2023/06/18 16:34:51;;;;;;;4.40;4.07;;;;;;;;;;4308625;33;20086;-81
2023/06/18 16:37:17;;;;;;;5.40;4.03;;;;;;;;;;4308343;33;20125;-79
2023/06/18 16:39:43;;;;;;;8.05;3.50;;;;;;;;;;4307511;33;20045;-80